A- A+ FrançaisEnglishEspañol中国

Services sur Internet Soldes sur Internet Des idées de cadeaux Météo Météo aéro

La météo à : Autours de vous Tarbes-Lourdes-PyrénéesFontenay-Le-ComteVitry-En-Artois Bordeaux-Leognan-Saucats

La météo aéronautique pour les pilotes, la préparation du vol avec les METAR (METeorological Aerodrome Report, message d'observation des conditions météorologiques pour l'aviation) et Les TAF (Terminal Aerodrome Forecast : message de prévision à court terme des conditions météorologiques pour l'aviation). Et les autres ressources comme les VAC (Visual Approch Chart) et les NOTAM (Notice To Airman) pour préprer les vols.

Aéroport Illulissat (Groenland) / OACI BGJN/ IATA JAV

L'altitude de l'aéroport Illulissat est de 29 m = 95 ft. Il est situé à proximité de Ilulissat (Groenland). La météo générale à 5 jours est disponible pour Ilulissat situé à 3.4 km.

METAR de l'aéroport Illulissat - BGJN

BGJN 080150Z AUTO 10007KT 080V140 9999NDV OVC060/// M09/M16 Q1008

Décodage du METAR de l'aéroport Illulissat (GL)

METAR émis par BGJN le dimanche 8 décembre 2019 à 01:50 heure TU. C'est un METAR généré automatiquement. Attention ce METAR est obsolète car il a été émis il y a 59 minutes.

La visibilité est de supérieure à 10 km = supérieure à 6.2 sm.

La température est de -9°C = 16 °F et le point rosée est de -16°C = 3 °F . Ce qui correspond à 57% d'humidité relative.

Le QNH est de 1008 hPa = 29.77 inHg

Vent de 7 kt = 13 km/h, orienté à 100°.

Nuages : Couverture nuageuse soudée à 6000 ft = 1830 mètres.

TAF de l'aéroport Illulissat - BGJN

BGJN 311959Z 3121/0101 12006KT 9999 FEW100

BGJN 311959Z 3121/0101 12006KT 9999 quelques nuages à 100

Aéroport à proximité de Illulissat

Météo générale à 5 jours à Ilulissat (3.4 km)Aéroport Aaisiaat (90 km)Aéroport Uummannaq (177 km)Aéroport Kangerlussuaq (248 km)Aéroport Sisimiut (278 km)Aéroport Maniitsoq (433 km)Aéroport Upernavik (435 km)

Vue aérienne de l'aéroport Illulissat

NOTAM de l'aéroport Illulissat

Les NOTAM sont fournis sans aucune garantie de leur actualité. Le pilote est le seul responsable de la vérification de sa validité avant de l'utiliser opérationnellement pour préparer un vol ou l'utiliser lors de sa navigation.

Pas de NOTAM

Sources des données